sensor_id;sensor_type;location;lat;lon;timestamp;P1;durP1;ratioP1;P2;durP2;ratioP2
21661;SDS011;10992;48.170;8.596;2024-01-30T00:00:25;21.95;;;15.40;;
21661;SDS011;10992;48.170;8.596;2024-01-30T00:02:52;20.77;;;14.90;;
21661;SDS011;10992;48.170;8.596;2024-01-30T00:05:19;19.65;;;14.15;;
21661;SDS011;10992;48.170;8.596;2024-01-30T00:07:46;21.00;;;13.73;;
21661;SDS011;10992;48.170;8.596;2024-01-30T00:10:13;22.65;;;14.40;;
21661;SDS011;10992;48.170;8.596;2024-01-30T00:12:40;18.77;;;13.15;;
21661;SDS011;10992;48.170;8.596;2024-01-30T00:15:07;23.25;;;13.98;;
21661;SDS011;10992;48.170;8.596;2024-01-30T00:17:36;21.50;;;13.60;;
21661;SDS011;10992;48.170;8.596;2024-01-30T00:20:03;19.63;;;13.63;;
21661;SDS011;10992;48.170;8.596;2024-01-30T00:22:35;17.58;;;12.55;;
21661;SDS011;10992;48.170;8.596;2024-01-30T00:25:02;19.30;;;13.65;;
21661;SDS011;10992;48.170;8.596;2024-01-30T00:27:30;19.05;;;12.77;;
21661;SDS011;10992;48.170;8.596;2024-01-30T00:29:56;20.52;;;12.63;;
21661;SDS011;10992;48.170;8.596;2024-01-30T00:32:23;24.45;;;12.98;;
21661;SDS011;10992;48.170;8.596;2024-01-30T00:34:50;16.45;;;11.55;;
21661;SDS011;10992;48.170;8.596;2024-01-30T00:37:18;14.95;;;11.43;;
21661;SDS011;10992;48.170;8.596;2024-01-30T00:39:45;15.43;;;11.25;;
21661;SDS011;10992;48.170;8.596;2024-01-30T00:42:12;18.77;;;11.32;;
21661;SDS011;10992;48.170;8.596;2024-01-30T00:44:38;16.05;;;10.75;;
21661;SDS011;10992;48.170;8.596;2024-01-30T00:47:05;14.85;;;11.15;;
21661;SDS011;10992;48.170;8.596;2024-01-30T00:49:32;15.48;;;10.93;;
21661;SDS011;10992;48.170;8.596;2024-01-30T00:52:00;15.50;;;10.73;;
21661;SDS011;10992;48.170;8.596;2024-01-30T00:54:27;17.13;;;10.65;;
21661;SDS011;10992;48.170;8.596;2024-01-30T00:56:54;15.68;;;10.13;;
21661;SDS011;10992;48.170;8.596;2024-01-30T00:59:21;15.73;;;10.05;;
21661;SDS011;10992;48.170;8.596;2024-01-30T01:01:47;15.93;;;9.90;;
21661;SDS011;10992;48.170;8.596;2024-01-30T01:04:15;13.77;;;9.45;;
21661;SDS011;10992;48.170;8.596;2024-01-30T01:06:43;14.75;;;9.20;;
21661;SDS011;10992;48.170;8.596;2024-01-30T01:09:11;13.13;;;8.63;;
21661;SDS011;10992;48.170;8.596;2024-01-30T01:11:40;14.32;;;9.15;;
21661;SDS011;10992;48.170;8.596;2024-01-30T01:14:07;11.75;;;8.35;;
21661;SDS011;10992;48.170;8.596;2024-01-30T01:16:34;12.80;;;9.23;;
21661;SDS011;10992;48.170;8.596;2024-01-30T01:19:02;12.45;;;8.20;;
21661;SDS011;10992;48.170;8.596;2024-01-30T01:21:29;11.30;;;8.40;;
21661;SDS011;10992;48.170;8.596;2024-01-30T01:23:56;11.93;;;8.95;;
21661;SDS011;10992;48.170;8.596;2024-01-30T01:26:23;11.30;;;8.35;;
21661;SDS011;10992;48.170;8.596;2024-01-30T01:28:50;10.85;;;7.43;;
21661;SDS011;10992;48.170;8.596;2024-01-30T01:31:17;13.48;;;7.75;;
21661;SDS011;10992;48.170;8.596;2024-01-30T01:33:44;10.48;;;7.95;;
21661;SDS011;10992;48.170;8.596;2024-01-30T01:36:13;10.30;;;7.05;;
21661;SDS011;10992;48.170;8.596;2024-01-30T01:38:40;11.10;;;7.47;;
21661;SDS011;10992;48.170;8.596;2024-01-30T01:41:07;10.20;;;6.40;;
21661;SDS011;10992;48.170;8.596;2024-01-30T01:43:34;9.98;;;6.68;;
21661;SDS011;10992;48.170;8.596;2024-01-30T01:46:01;9.95;;;6.28;;
21661;SDS011;10992;48.170;8.596;2024-01-30T01:48:28;9.75;;;6.60;;
21661;SDS011;10992;48.170;8.596;2024-01-30T01:50:56;9.27;;;5.93;;
21661;SDS011;10992;48.170;8.596;2024-01-30T01:53:24;9.07;;;6.20;;
21661;SDS011;10992;48.170;8.596;2024-01-30T01:55:51;9.63;;;6.80;;
21661;SDS011;10992;48.170;8.596;2024-01-30T01:58:19;10.65;;;7.90;;
21661;SDS011;10992;48.170;8.596;2024-01-30T02:00:49;12.63;;;6.70;;
21661;SDS011;10992;48.170;8.596;2024-01-30T02:03:17;10.73;;;7.38;;
21661;SDS011;10992;48.170;8.596;2024-01-30T02:05:48;11.57;;;7.72;;
21661;SDS011;10992;48.170;8.596;2024-01-30T02:08:16;10.40;;;7.82;;
21661;SDS011;10992;48.170;8.596;2024-01-30T02:10:43;16.33;;;8.13;;
21661;SDS011;10992;48.170;8.596;2024-01-30T02:13:10;10.00;;;6.60;;
21661;SDS011;10992;48.170;8.596;2024-01-30T02:15:37;9.23;;;5.90;;
21661;SDS011;10992;48.170;8.596;2024-01-30T02:18:04;9.02;;;6.60;;
21661;SDS011;10992;48.170;8.596;2024-01-30T02:20:31;8.48;;;6.32;;
21661;SDS011;10992;48.170;8.596;2024-01-30T02:23:01;8.68;;;6.15;;
21661;SDS011;10992;48.170;8.596;2024-01-30T02:25:36;10.57;;;6.28;;
21661;SDS011;10992;48.170;8.596;2024-01-30T02:28:13;10.63;;;6.47;;
21661;SDS011;10992;48.170;8.596;2024-01-30T02:30:43;8.63;;;5.97;;
21661;SDS011;10992;48.170;8.596;2024-01-30T02:33:11;7.25;;;5.50;;
21661;SDS011;10992;48.170;8.596;2024-01-30T02:35:38;8.50;;;5.80;;
21661;SDS011;10992;48.170;8.596;2024-01-30T02:38:05;8.20;;;5.80;;
21661;SDS011;10992;48.170;8.596;2024-01-30T02:40:32;8.07;;;5.72;;
21661;SDS011;10992;48.170;8.596;2024-01-30T02:42:59;7.97;;;5.75;;
21661;SDS011;10992;48.170;8.596;2024-01-30T02:45:27;7.55;;;5.47;;
21661;SDS011;10992;48.170;8.596;2024-01-30T02:47:54;7.70;;;5.63;;
21661;SDS011;10992;48.170;8.596;2024-01-30T02:50:21;10.15;;;5.53;;
21661;SDS011;10992;48.170;8.596;2024-01-30T02:52:48;8.82;;;6.18;;
21661;SDS011;10992;48.170;8.596;2024-01-30T02:55:15;8.45;;;5.95;;
21661;SDS011;10992;48.170;8.596;2024-01-30T02:57:46;7.90;;;5.35;;
21661;SDS011;10992;48.170;8.596;2024-01-30T03:00:13;7.80;;;5.47;;
21661;SDS011;10992;48.170;8.596;2024-01-30T03:02:40;7.68;;;4.93;;
21661;SDS011;10992;48.170;8.596;2024-01-30T03:05:07;6.38;;;5.43;;
21661;SDS011;10992;48.170;8.596;2024-01-30T03:07:34;8.75;;;5.60;;
21661;SDS011;10992;48.170;8.596;2024-01-30T03:10:01;9.70;;;5.60;;
21661;SDS011;10992;48.170;8.596;2024-01-30T03:12:31;7.82;;;5.38;;
21661;SDS011;10992;48.170;8.596;2024-01-30T03:14:58;7.65;;;5.75;;
21661;SDS011;10992;48.170;8.596;2024-01-30T03:17:25;7.15;;;5.47;;
21661;SDS011;10992;48.170;8.596;2024-01-30T03:19:52;8.65;;;5.65;;
21661;SDS011;10992;48.170;8.596;2024-01-30T03:22:19;11.38;;;6.88;;
21661;SDS011;10992;48.170;8.596;2024-01-30T03:24:45;10.10;;;7.07;;
21661;SDS011;10992;48.170;8.596;2024-01-30T03:27:12;9.98;;;7.22;;
21661;SDS011;10992;48.170;8.596;2024-01-30T03:29:39;13.63;;;8.45;;
21661;SDS011;10992;48.170;8.596;2024-01-30T03:32:06;11.18;;;7.97;;
21661;SDS011;10992;48.170;8.596;2024-01-30T03:34:32;12.20;;;8.55;;
21661;SDS011;10992;48.170;8.596;2024-01-30T03:36:59;17.27;;;9.82;;
21661;SDS011;10992;48.170;8.596;2024-01-30T03:39:27;13.25;;;9.93;;
21661;SDS011;10992;48.170;8.596;2024-01-30T03:41:53;14.65;;;10.45;;
21661;SDS011;10992;48.170;8.596;2024-01-30T03:44:20;15.35;;;9.68;;
21661;SDS011;10992;48.170;8.596;2024-01-30T03:46:47;14.90;;;10.20;;
21661;SDS011;10992;48.170;8.596;2024-01-30T03:49:14;16.80;;;10.40;;
21661;SDS011;10992;48.170;8.596;2024-01-30T03:51:41;17.25;;;10.95;;
21661;SDS011;10992;48.170;8.596;2024-01-30T03:54:08;14.52;;;9.95;;
21661;SDS011;10992;48.170;8.596;2024-01-30T03:56:34;13.02;;;9.93;;
21661;SDS011;10992;48.170;8.596;2024-01-30T03:59:01;17.73;;;11.20;;
21661;SDS011;10992;48.170;8.596;2024-01-30T04:01:29;17.65;;;11.25;;
21661;SDS011;10992;48.170;8.596;2024-01-30T04:03:56;15.35;;;10.48;;
21661;SDS011;10992;48.170;8.596;2024-01-30T04:06:23;16.23;;;10.80;;
21661;SDS011;10992;48.170;8.596;2024-01-30T04:08:50;17.65;;;12.45;;
21661;SDS011;10992;48.170;8.596;2024-01-30T04:11:18;16.55;;;10.68;;
21661;SDS011;10992;48.170;8.596;2024-01-30T04:13:46;20.70;;;11.98;;
21661;SDS011;10992;48.170;8.596;2024-01-30T04:16:21;18.35;;;11.93;;
21661;SDS011;10992;48.170;8.596;2024-01-30T04:18:49;18.23;;;13.55;;
21661;SDS011;10992;48.170;8.596;2024-01-30T04:21:16;20.98;;;13.27;;
21661;SDS011;10992;48.170;8.596;2024-01-30T04:23:43;17.95;;;12.40;;
21661;SDS011;10992;48.170;8.596;2024-01-30T04:26:09;21.05;;;12.00;;
21661;SDS011;10992;48.170;8.596;2024-01-30T04:28:36;22.60;;;14.77;;
21661;SDS011;10992;48.170;8.596;2024-01-30T04:31:04;25.33;;;16.08;;
21661;SDS011;10992;48.170;8.596;2024-01-30T04:33:30;23.15;;;15.40;;
21661;SDS011;10992;48.170;8.596;2024-01-30T04:35:57;24.80;;;15.35;;
21661;SDS011;10992;48.170;8.596;2024-01-30T04:38:24;24.73;;;16.10;;
21661;SDS011;10992;48.170;8.596;2024-01-30T04:40:51;20.67;;;14.63;;
21661;SDS011;10992;48.170;8.596;2024-01-30T04:43:17;23.02;;;15.40;;
21661;SDS011;10992;48.170;8.596;2024-01-30T04:45:45;25.08;;;16.98;;
21661;SDS011;10992;48.170;8.596;2024-01-30T04:48:12;22.67;;;15.98;;
21661;SDS011;10992;48.170;8.596;2024-01-30T04:50:40;25.05;;;16.35;;
21661;SDS011;10992;48.170;8.596;2024-01-30T04:53:06;24.77;;;16.52;;
21661;SDS011;10992;48.170;8.596;2024-01-30T04:55:34;25.33;;;16.23;;
21661;SDS011;10992;48.170;8.596;2024-01-30T04:58:02;24.33;;;16.05;;
21661;SDS011;10992;48.170;8.596;2024-01-30T05:00:29;28.92;;;17.77;;
21661;SDS011;10992;48.170;8.596;2024-01-30T05:02:55;31.08;;;18.45;;
21661;SDS011;10992;48.170;8.596;2024-01-30T05:05:22;26.35;;;16.90;;
21661;SDS011;10992;48.170;8.596;2024-01-30T05:07:49;29.92;;;17.95;;
21661;SDS011;10992;48.170;8.596;2024-01-30T05:10:16;26.88;;;18.52;;
21661;SDS011;10992;48.170;8.596;2024-01-30T05:12:43;27.63;;;17.67;;
21661;SDS011;10992;48.170;8.596;2024-01-30T05:15:10;30.17;;;19.17;;
21661;SDS011;10992;48.170;8.596;2024-01-30T05:17:37;25.02;;;17.95;;
21661;SDS011;10992;48.170;8.596;2024-01-30T05:20:03;29.63;;;18.67;;
21661;SDS011;10992;48.170;8.596;2024-01-30T05:22:31;29.45;;;18.23;;
21661;SDS011;10992;48.170;8.596;2024-01-30T05:24:58;29.80;;;19.08;;
21661;SDS011;10992;48.170;8.596;2024-01-30T05:27:24;27.75;;;19.33;;
21661;SDS011;10992;48.170;8.596;2024-01-30T05:29:51;30.63;;;19.58;;
21661;SDS011;10992;48.170;8.596;2024-01-30T05:32:18;27.48;;;19.30;;
21661;SDS011;10992;48.170;8.596;2024-01-30T05:34:45;29.83;;;20.02;;
21661;SDS011;10992;48.170;8.596;2024-01-30T05:37:12;33.47;;;20.75;;
21661;SDS011;10992;48.170;8.596;2024-01-30T05:39:43;33.53;;;20.70;;
21661;SDS011;10992;48.170;8.596;2024-01-30T05:42:10;34.85;;;20.80;;
21661;SDS011;10992;48.170;8.596;2024-01-30T05:44:36;32.28;;;20.88;;
21661;SDS011;10992;48.170;8.596;2024-01-30T05:47:03;33.47;;;21.33;;
21661;SDS011;10992;48.170;8.596;2024-01-30T05:49:30;35.45;;;20.50;;
21661;SDS011;10992;48.170;8.596;2024-01-30T05:51:57;30.55;;;20.10;;
21661;SDS011;10992;48.170;8.596;2024-01-30T05:54:24;30.38;;;20.20;;
21661;SDS011;10992;48.170;8.596;2024-01-30T05:56:51;27.20;;;18.88;;
21661;SDS011;10992;48.170;8.596;2024-01-30T05:59:18;29.00;;;18.77;;
21661;SDS011;10992;48.170;8.596;2024-01-30T06:01:48;25.35;;;17.20;;
21661;SDS011;10992;48.170;8.596;2024-01-30T06:04:15;28.05;;;17.45;;
21661;SDS011;10992;48.170;8.596;2024-01-30T06:06:42;24.63;;;15.93;;
21661;SDS011;10992;48.170;8.596;2024-01-30T06:09:09;23.83;;;14.77;;
21661;SDS011;10992;48.170;8.596;2024-01-30T06:11:36;26.13;;;16.88;;
21661;SDS011;10992;48.170;8.596;2024-01-30T06:14:03;21.63;;;14.57;;
21661;SDS011;10992;48.170;8.596;2024-01-30T06:16:30;21.35;;;14.77;;
21661;SDS011;10992;48.170;8.596;2024-01-30T06:18:57;24.85;;;15.32;;
21661;SDS011;10992;48.170;8.596;2024-01-30T06:21:24;23.23;;;15.48;;
21661;SDS011;10992;48.170;8.596;2024-01-30T06:23:51;25.20;;;15.57;;
21661;SDS011;10992;48.170;8.596;2024-01-30T06:26:17;23.40;;;16.25;;
21661;SDS011;10992;48.170;8.596;2024-01-30T06:28:44;21.33;;;14.55;;
21661;SDS011;10992;48.170;8.596;2024-01-30T06:31:11;21.33;;;14.40;;
21661;SDS011;10992;48.170;8.596;2024-01-30T06:33:38;22.30;;;15.30;;
21661;SDS011;10992;48.170;8.596;2024-01-30T06:36:05;22.42;;;14.70;;
21661;SDS011;10992;48.170;8.596;2024-01-30T06:38:32;25.23;;;15.32;;
21661;SDS011;10992;48.170;8.596;2024-01-30T06:40:59;22.25;;;16.27;;
21661;SDS011;10992;48.170;8.596;2024-01-30T06:43:25;21.30;;;14.90;;
21661;SDS011;10992;48.170;8.596;2024-01-30T06:45:52;24.50;;;14.88;;
21661;SDS011;10992;48.170;8.596;2024-01-30T06:48:19;24.85;;;12.88;;
21661;SDS011;10992;48.170;8.596;2024-01-30T06:50:46;21.88;;;14.52;;
21661;SDS011;10992;48.170;8.596;2024-01-30T06:53:14;20.17;;;13.32;;
21661;SDS011;10992;48.170;8.596;2024-01-30T06:55:41;18.27;;;12.05;;
21661;SDS011;10992;48.170;8.596;2024-01-30T06:58:07;20.27;;;11.95;;
21661;SDS011;10992;48.170;8.596;2024-01-30T07:00:34;19.75;;;13.18;;
21661;SDS011;10992;48.170;8.596;2024-01-30T07:03:02;20.98;;;13.20;;
21661;SDS011;10992;48.170;8.596;2024-01-30T07:05:29;18.48;;;12.68;;
21661;SDS011;10992;48.170;8.596;2024-01-30T07:07:56;19.27;;;13.93;;
21661;SDS011;10992;48.170;8.596;2024-01-30T07:10:24;20.98;;;14.50;;
21661;SDS011;10992;48.170;8.596;2024-01-30T07:12:51;24.20;;;14.38;;
21661;SDS011;10992;48.170;8.596;2024-01-30T07:15:18;22.50;;;14.77;;
21661;SDS011;10992;48.170;8.596;2024-01-30T07:17:46;23.52;;;14.73;;
21661;SDS011;10992;48.170;8.596;2024-01-30T07:20:13;21.75;;;14.50;;
21661;SDS011;10992;48.170;8.596;2024-01-30T07:22:43;23.63;;;15.25;;
21661;SDS011;10992;48.170;8.596;2024-01-30T07:25:11;24.42;;;15.55;;
21661;SDS011;10992;48.170;8.596;2024-01-30T07:27:37;32.28;;;16.00;;
21661;SDS011;10992;48.170;8.596;2024-01-30T07:30:04;21.95;;;14.65;;
21661;SDS011;10992;48.170;8.596;2024-01-30T07:32:32;24.13;;;16.77;;
21661;SDS011;10992;48.170;8.596;2024-01-30T07:34:59;30.05;;;17.30;;
21661;SDS011;10992;48.170;8.596;2024-01-30T07:37:34;28.67;;;17.17;;
21661;SDS011;10992;48.170;8.596;2024-01-30T07:40:02;24.98;;;17.13;;
21661;SDS011;10992;48.170;8.596;2024-01-30T07:42:30;25.90;;;15.27;;
21661;SDS011;10992;48.170;8.596;2024-01-30T07:44:57;20.02;;;13.85;;
21661;SDS011;10992;48.170;8.596;2024-01-30T07:47:24;20.70;;;12.15;;
21661;SDS011;10992;48.170;8.596;2024-01-30T07:49:51;18.33;;;12.77;;
21661;SDS011;10992;48.170;8.596;2024-01-30T07:52:18;36.35;;;21.45;;
21661;SDS011;10992;48.170;8.596;2024-01-30T07:54:45;28.60;;;18.25;;
21661;SDS011;10992;48.170;8.596;2024-01-30T07:57:12;20.98;;;15.10;;
21661;SDS011;10992;48.170;8.596;2024-01-30T07:59:39;18.90;;;13.05;;
21661;SDS011;10992;48.170;8.596;2024-01-30T08:02:05;18.02;;;11.70;;
21661;SDS011;10992;48.170;8.596;2024-01-30T08:04:32;15.13;;;10.15;;
21661;SDS011;10992;48.170;8.596;2024-01-30T08:06:59;14.23;;;9.48;;
21661;SDS011;10992;48.170;8.596;2024-01-30T08:09:27;14.05;;;8.73;;
21661;SDS011;10992;48.170;8.596;2024-01-30T08:11:54;12.07;;;8.40;;
21661;SDS011;10992;48.170;8.596;2024-01-30T08:14:21;11.38;;;7.50;;
21661;SDS011;10992;48.170;8.596;2024-01-30T08:16:47;9.77;;;7.30;;
21661;SDS011;10992;48.170;8.596;2024-01-30T08:19:14;11.82;;;7.68;;
21661;SDS011;10992;48.170;8.596;2024-01-30T08:21:45;10.65;;;7.40;;
21661;SDS011;10992;48.170;8.596;2024-01-30T08:24:12;9.65;;;7.40;;
21661;SDS011;10992;48.170;8.596;2024-01-30T08:26:38;10.35;;;7.50;;
21661;SDS011;10992;48.170;8.596;2024-01-30T08:29:05;13.85;;;8.25;;
21661;SDS011;10992;48.170;8.596;2024-01-30T08:31:32;10.90;;;7.53;;
21661;SDS011;10992;48.170;8.596;2024-01-30T08:33:59;11.23;;;7.53;;
21661;SDS011;10992;48.170;8.596;2024-01-30T08:36:26;13.88;;;8.45;;
21661;SDS011;10992;48.170;8.596;2024-01-30T08:38:53;9.27;;;7.25;;
21661;SDS011;10992;48.170;8.596;2024-01-30T08:41:26;14.75;;;7.82;;
21661;SDS011;10992;48.170;8.596;2024-01-30T08:43:54;12.43;;;7.60;;
21661;SDS011;10992;48.170;8.596;2024-01-30T08:46:21;11.75;;;8.45;;
21661;SDS011;10992;48.170;8.596;2024-01-30T08:48:48;12.40;;;8.20;;
21661;SDS011;10992;48.170;8.596;2024-01-30T08:51:15;10.52;;;8.02;;
21661;SDS011;10992;48.170;8.596;2024-01-30T08:53:42;10.60;;;7.45;;
21661;SDS011;10992;48.170;8.596;2024-01-30T08:56:09;9.93;;;6.95;;
21661;SDS011;10992;48.170;8.596;2024-01-30T08:58:36;11.10;;;7.93;;
21661;SDS011;10992;48.170;8.596;2024-01-30T09:01:03;11.70;;;7.10;;
21661;SDS011;10992;48.170;8.596;2024-01-30T09:03:31;9.35;;;6.50;;
21661;SDS011;10992;48.170;8.596;2024-01-30T09:05:58;9.40;;;6.38;;
21661;SDS011;10992;48.170;8.596;2024-01-30T09:08:25;8.25;;;5.88;;
21661;SDS011;10992;48.170;8.596;2024-01-30T09:10:52;7.65;;;5.55;;
21661;SDS011;10992;48.170;8.596;2024-01-30T09:13:19;6.95;;;4.93;;
21661;SDS011;10992;48.170;8.596;2024-01-30T09:15:46;7.50;;;5.03;;
21661;SDS011;10992;48.170;8.596;2024-01-30T09:18:13;8.57;;;5.28;;
21661;SDS011;10992;48.170;8.596;2024-01-30T09:20:40;7.95;;;4.90;;
21661;SDS011;10992;48.170;8.596;2024-01-30T09:23:07;9.00;;;4.82;;
21661;SDS011;10992;48.170;8.596;2024-01-30T09:25:34;9.23;;;5.28;;
21661;SDS011;10992;48.170;8.596;2024-01-30T09:28:01;6.63;;;4.97;;
21661;SDS011;10992;48.170;8.596;2024-01-30T09:30:34;6.88;;;5.13;;
21661;SDS011;10992;48.170;8.596;2024-01-30T09:33:01;8.60;;;5.45;;
21661;SDS011;10992;48.170;8.596;2024-01-30T09:35:28;7.88;;;5.72;;
21661;SDS011;10992;48.170;8.596;2024-01-30T09:37:56;7.20;;;4.82;;
21661;SDS011;10992;48.170;8.596;2024-01-30T09:40:24;9.00;;;5.50;;
21661;SDS011;10992;48.170;8.596;2024-01-30T09:42:51;8.52;;;5.57;;
21661;SDS011;10992;48.170;8.596;2024-01-30T09:45:18;7.40;;;5.80;;
21661;SDS011;10992;48.170;8.596;2024-01-30T09:47:46;9.15;;;5.30;;
21661;SDS011;10992;48.170;8.596;2024-01-30T09:50:13;9.02;;;5.35;;
21661;SDS011;10992;48.170;8.596;2024-01-30T09:52:41;9.15;;;5.03;;
21661;SDS011;10992;48.170;8.596;2024-01-30T09:55:09;9.20;;;4.88;;
21661;SDS011;10992;48.170;8.596;2024-01-30T09:57:36;6.82;;;5.00;;
21661;SDS011;10992;48.170;8.596;2024-01-30T10:00:03;7.53;;;4.63;;
21661;SDS011;10992;48.170;8.596;2024-01-30T10:02:39;8.35;;;4.97;;
21661;SDS011;10992;48.170;8.596;2024-01-30T10:05:07;9.75;;;6.85;;
21661;SDS011;10992;48.170;8.596;2024-01-30T10:07:35;9.75;;;6.47;;
21661;SDS011;10992;48.170;8.596;2024-01-30T10:10:04;7.25;;;5.53;;
21661;SDS011;10992;48.170;8.596;2024-01-30T10:12:33;9.38;;;5.50;;
21661;SDS011;10992;48.170;8.596;2024-01-30T10:15:00;8.38;;;5.10;;
21661;SDS011;10992;48.170;8.596;2024-01-30T10:17:26;7.72;;;5.22;;
21661;SDS011;10992;48.170;8.596;2024-01-30T10:19:59;7.35;;;5.10;;
21661;SDS011;10992;48.170;8.596;2024-01-30T10:22:27;7.53;;;5.20;;
21661;SDS011;10992;48.170;8.596;2024-01-30T10:24:55;6.25;;;5.00;;
21661;SDS011;10992;48.170;8.596;2024-01-30T10:27:25;8.80;;;5.72;;
21661;SDS011;10992;48.170;8.596;2024-01-30T10:29:59;9.45;;;5.90;;
21661;SDS011;10992;48.170;8.596;2024-01-30T10:32:26;8.32;;;6.03;;
21661;SDS011;10992;48.170;8.596;2024-01-30T10:34:53;8.00;;;5.57;;
21661;SDS011;10992;48.170;8.596;2024-01-30T10:37:21;10.90;;;6.10;;
21661;SDS011;10992;48.170;8.596;2024-01-30T10:39:53;8.30;;;6.10;;
21661;SDS011;10992;48.170;8.596;2024-01-30T10:42:25;10.93;;;6.55;;
21661;SDS011;10992;48.170;8.596;2024-01-30T10:47:21;8.38;;;6.20;;
21661;SDS011;10992;48.170;8.596;2024-01-30T10:49:52;8.70;;;6.05;;
21661;SDS011;10992;48.170;8.596;2024-01-30T10:52:21;10.40;;;5.82;;
21661;SDS011;10992;48.170;8.596;2024-01-30T10:54:53;9.40;;;6.05;;
21661;SDS011;10992;48.170;8.596;2024-01-30T10:57:22;9.65;;;5.53;;
21661;SDS011;10992;48.170;8.596;2024-01-30T10:59:51;7.72;;;5.47;;
21661;SDS011;10992;48.170;8.596;2024-01-30T11:02:21;7.35;;;4.93;;
21661;SDS011;10992;48.170;8.596;2024-01-30T11:04:50;8.48;;;4.65;;
21661;SDS011;10992;48.170;8.596;2024-01-30T11:07:26;6.88;;;5.07;;
21661;SDS011;10992;48.170;8.596;2024-01-30T11:12:25;9.13;;;5.38;;
21661;SDS011;10992;48.170;8.596;2024-01-30T11:17:43;8.52;;;5.03;;
21661;SDS011;10992;48.170;8.596;2024-01-30T11:20:19;6.00;;;4.93;;
21661;SDS011;10992;48.170;8.596;2024-01-30T11:22:47;8.18;;;5.03;;
21661;SDS011;10992;48.170;8.596;2024-01-30T11:25:19;8.52;;;5.03;;
21661;SDS011;10992;48.170;8.596;2024-01-30T11:27:49;9.50;;;5.32;;
21661;SDS011;10992;48.170;8.596;2024-01-30T11:30:23;8.07;;;5.60;;
21661;SDS011;10992;48.170;8.596;2024-01-30T11:33:06;12.32;;;6.10;;
21661;SDS011;10992;48.170;8.596;2024-01-30T11:35:36;6.20;;;4.93;;
21661;SDS011;10992;48.170;8.596;2024-01-30T11:38:03;7.75;;;5.60;;
21661;SDS011;10992;48.170;8.596;2024-01-30T11:40:34;10.82;;;6.60;;
21661;SDS011;10992;48.170;8.596;2024-01-30T11:43:03;10.18;;;6.25;;
21661;SDS011;10992;48.170;8.596;2024-01-30T11:45:32;9.23;;;6.13;;
21661;SDS011;10992;48.170;8.596;2024-01-30T11:47:59;9.95;;;6.32;;
21661;SDS011;10992;48.170;8.596;2024-01-30T11:50:30;9.15;;;5.97;;
21661;SDS011;10992;48.170;8.596;2024-01-30T11:52:58;9.93;;;6.40;;
21661;SDS011;10992;48.170;8.596;2024-01-30T11:55:29;9.65;;;6.55;;
21661;SDS011;10992;48.170;8.596;2024-01-30T11:58:00;9.82;;;6.97;;
21661;SDS011;10992;48.170;8.596;2024-01-30T12:00:28;9.90;;;7.55;;
21661;SDS011;10992;48.170;8.596;2024-01-30T12:02:57;10.02;;;6.95;;
21661;SDS011;10992;48.170;8.596;2024-01-30T12:05:25;12.25;;;7.13;;
21661;SDS011;10992;48.170;8.596;2024-01-30T12:07:55;11.50;;;7.13;;
21661;SDS011;10992;48.170;8.596;2024-01-30T12:10:27;12.68;;;7.60;;
21661;SDS011;10992;48.170;8.596;2024-01-30T12:12:54;13.77;;;8.35;;
21661;SDS011;10992;48.170;8.596;2024-01-30T12:15:22;9.60;;;7.35;;
21661;SDS011;10992;48.170;8.596;2024-01-30T12:17:49;15.13;;;8.68;;
21661;SDS011;10992;48.170;8.596;2024-01-30T12:20:19;11.40;;;8.20;;
21661;SDS011;10992;48.170;8.596;2024-01-30T12:22:48;10.35;;;7.38;;
21661;SDS011;10992;48.170;8.596;2024-01-30T12:25:17;16.50;;;7.70;;
21661;SDS011;10992;48.170;8.596;2024-01-30T12:27:46;13.07;;;7.93;;
21661;SDS011;10992;48.170;8.596;2024-01-30T12:30:19;12.57;;;8.30;;
21661;SDS011;10992;48.170;8.596;2024-01-30T12:32:49;11.45;;;8.75;;
21661;SDS011;10992;48.170;8.596;2024-01-30T12:35:18;11.77;;;8.45;;
21661;SDS011;10992;48.170;8.596;2024-01-30T12:37:47;12.70;;;8.43;;
21661;SDS011;10992;48.170;8.596;2024-01-30T12:40:15;14.40;;;8.63;;
21661;SDS011;10992;48.170;8.596;2024-01-30T12:42:42;13.50;;;8.40;;
21661;SDS011;10992;48.170;8.596;2024-01-30T12:45:13;11.52;;;7.68;;
21661;SDS011;10992;48.170;8.596;2024-01-30T12:47:41;12.43;;;8.38;;
21661;SDS011;10992;48.170;8.596;2024-01-30T12:50:08;14.45;;;10.13;;
21661;SDS011;10992;48.170;8.596;2024-01-30T12:52:36;12.73;;;8.70;;
21661;SDS011;10992;48.170;8.596;2024-01-30T12:55:03;13.23;;;8.70;;
21661;SDS011;10992;48.170;8.596;2024-01-30T12:57:31;14.98;;;9.35;;
21661;SDS011;10992;48.170;8.596;2024-01-30T12:59:58;12.38;;;8.23;;
21661;SDS011;10992;48.170;8.596;2024-01-30T13:02:25;11.27;;;8.05;;
21661;SDS011;10992;48.170;8.596;2024-01-30T13:04:54;13.75;;;7.90;;
21661;SDS011;10992;48.170;8.596;2024-01-30T13:07:21;11.02;;;7.75;;
21661;SDS011;10992;48.170;8.596;2024-01-30T13:09:48;10.13;;;7.00;;
21661;SDS011;10992;48.170;8.596;2024-01-30T13:12:14;12.48;;;8.27;;
21661;SDS011;10992;48.170;8.596;2024-01-30T13:14:41;11.13;;;7.60;;
21661;SDS011;10992;48.170;8.596;2024-01-30T13:17:09;14.50;;;7.53;;
21661;SDS011;10992;48.170;8.596;2024-01-30T13:19:36;13.63;;;8.52;;
21661;SDS011;10992;48.170;8.596;2024-01-30T13:22:03;11.93;;;7.45;;
21661;SDS011;10992;48.170;8.596;2024-01-30T13:24:30;12.18;;;8.45;;
21661;SDS011;10992;48.170;8.596;2024-01-30T13:26:57;11.70;;;8.50;;
21661;SDS011;10992;48.170;8.596;2024-01-30T13:29:24;11.43;;;8.52;;
21661;SDS011;10992;48.170;8.596;2024-01-30T13:31:51;8.68;;;6.95;;
21661;SDS011;10992;48.170;8.596;2024-01-30T13:34:20;13.45;;;7.82;;
21661;SDS011;10992;48.170;8.596;2024-01-30T13:36:47;13.15;;;7.82;;
21661;SDS011;10992;48.170;8.596;2024-01-30T13:39:15;10.88;;;6.85;;
21661;SDS011;10992;48.170;8.596;2024-01-30T13:41:42;11.45;;;7.97;;
21661;SDS011;10992;48.170;8.596;2024-01-30T13:44:09;14.07;;;8.68;;
21661;SDS011;10992;48.170;8.596;2024-01-30T13:46:35;12.88;;;7.68;;
21661;SDS011;10992;48.170;8.596;2024-01-30T13:49:02;11.77;;;6.85;;
21661;SDS011;10992;48.170;8.596;2024-01-30T13:51:29;10.70;;;7.43;;
21661;SDS011;10992;48.170;8.596;2024-01-30T13:53:58;10.35;;;7.35;;
21661;SDS011;10992;48.170;8.596;2024-01-30T13:56:26;12.00;;;7.68;;
21661;SDS011;10992;48.170;8.596;2024-01-30T13:58:53;10.48;;;7.07;;
21661;SDS011;10992;48.170;8.596;2024-01-30T14:01:22;10.98;;;7.05;;
21661;SDS011;10992;48.170;8.596;2024-01-30T14:03:49;11.77;;;7.25;;
21661;SDS011;10992;48.170;8.596;2024-01-30T14:06:16;11.02;;;6.43;;
21661;SDS011;10992;48.170;8.596;2024-01-30T14:08:43;9.10;;;6.55;;
21661;SDS011;10992;48.170;8.596;2024-01-30T14:11:22;9.98;;;7.20;;
21661;SDS011;10992;48.170;8.596;2024-01-30T14:13:49;12.38;;;7.97;;
21661;SDS011;10992;48.170;8.596;2024-01-30T14:16:16;10.52;;;7.03;;
21661;SDS011;10992;48.170;8.596;2024-01-30T14:18:43;9.85;;;7.20;;
21661;SDS011;10992;48.170;8.596;2024-01-30T14:21:10;10.48;;;6.35;;
21661;SDS011;10992;48.170;8.596;2024-01-30T14:23:37;12.45;;;7.10;;
21661;SDS011;10992;48.170;8.596;2024-01-30T14:26:03;11.05;;;6.97;;
21661;SDS011;10992;48.170;8.596;2024-01-30T14:28:30;11.13;;;6.90;;
21661;SDS011;10992;48.170;8.596;2024-01-30T14:30:57;12.30;;;8.32;;
21661;SDS011;10992;48.170;8.596;2024-01-30T14:33:24;11.15;;;7.80;;
21661;SDS011;10992;48.170;8.596;2024-01-30T14:35:52;14.15;;;7.22;;
21661;SDS011;10992;48.170;8.596;2024-01-30T14:38:19;39.30;;;24.63;;
21661;SDS011;10992;48.170;8.596;2024-01-30T14:40:46;21.42;;;10.73;;
21661;SDS011;10992;48.170;8.596;2024-01-30T14:43:13;12.40;;;7.22;;